Date,TemperatureHighF,TemperatureAvgF,TemperatureLowF,DewpointHighF,DewpointAvgF,DewpointLowF,HumidityHigh,HumidityAvg,HumidityLow,PressureMaxIn,PressureMinIn,WindSpeedMaxMPH,WindSpeedAvgMPH,GustSpeedMaxMPH,PrecipitationSumIn
2013-1-1,36.6,27.4,7.5,28.3,18.3,4.5,88,69,58,30.01,29.78,23,6,24,0.00
2013-1-2,27.7,14.1,-1.5,18.1,6.9,-4.5,90,74,48,30.28,29.98,26,4,26,0.00
2013-1-3,16.7,7.4,-3.3,9.4,-0.0,-7.3,83,71,57,30.30,30.00,8,2,8,0.00
2013-1-4,39.9,29.2,16.3,24.2,19.2,9.5,87,67,49,30.01,29.87,18,2,18,0.00
2013-1-5,37.9,27.8,18.4,23.0,18.3,15.2,89,69,49,30.27,30.19,26,3,26,0.00
2013-1-6,41.8,32.1,19.2,30.6,25.7,16.2,93,78,60,30.21,29.92,12,2,12,0.00
2013-1-7,37.8,28.0,11.9,32.5,22.5,9.8,93,80,64,30.40,30.00,21,3,21,0.00
2013-1-8,42.4,23.0,6.8,28.8,18.3,4.2,94,83,58,30.40,30.30,10,1,11,0.00
2013-1-9,45.7,29.3,12.1,32.7,23.5,10.2,95,81,45,30.39,30.00,37,3,38,0.00
2013-1-10,44.8,38.5,29.5,30.0,26.5,23.1,78,62,54,30.57,30.16,36,7,38,0.00
2013-1-11,38.4,31.1,22.2,36.3,27.1,20.1,96,86,61,30.56,30.10,21,3,23,0.06
2013-1-12,44.1,40.2,36.9,42.1,39.1,35.9,98,96,92,30.17,30.09,13,2,14,0.00
2013-1-13,45.5,41.7,36.7,44.9,41.2,36.1,99,98,95,30.15,29.94,18,3,18,0.01
2013-1-14,47.4,42.0,34.5,45.2,35.6,24.4,98,79,59,30.34,29.84,23,7,24,0.01
2013-1-15,37.1,33.3,29.5,25.6,23.8,21.8,82,68,56,30.37,30.25,14,3,15,0.00
2013-1-16,32.1,30.0,28.0,30.4,28.1,23.6,97,92,78,30.25,29.84,3,0,5,0.00
2013-1-17,37.9,30.8,22.9,31.2,23.4,9.7,97,75,53,30.19,29.87,26,4,27,0.19
2013-1-18,24.4,18.4,11.6,11.6,5.7,-4.1,85,59,38,30.44,30.12,19,4,19,0.00
2013-1-19,44.4,35.1,23.9,28.1,21.3,11.0,65,57,48,30.28,29.79,23,7,24,0.02
2013-1-20,46.3,36.5,22.0,34.4,22.8,10.2,79,58,28,30.05,29.57,25,7,28,0.00
2013-1-21,26.7,22.2,16.6,18.8,13.9,9.5,92,71,49,30.09,29.83,13,3,13,0.00
2013-1-22,20.4,15.9,8.8,14.4,2.3,-6.5,84,56,35,30.15,29.81,23,6,24,0.00
2013-1-23,12.5,6.5,-1.1,0.8,-3.5,-7.2,88,64,48,30.25,30.15,23,4,24,0.00
2013-1-24,14.6,6.6,-3.5,4.6,-2.8,-6.8,88,67,39,30.41,30.19,33,6,34,0.00
2013-1-25,18.5,12.3,5.6,11.6,2.0,-2.7,88,64,42,30.44,30.10,21,4,22,0.00
2013-1-26,21.5,13.7,6.8,9.3,5.9,3.2,90,72,47,30.37,30.10,22,4,22,0.00
2013-1-27,29.2,19.0,12.0,9.1,3.0,-6.0,80,53,22,30.53,30.37,18,4,18,0.00
2013-1-28,31.6,24.3,14.7,30.6,18.6,6.9,96,80,51,30.51,29.97,14,2,14,0.00
2013-1-29,38.8,32.3,26.7,37.2,30.5,25.4,96,93,88,30.17,29.99,23,2,23,0.35
2013-1-30,55.8,48.1,38.8,54.4,47.1,37.2,98,96,93,30.03,29.32,27,8,28,0.20
2013-1-31,53.6,39.9,26.9,53.0,32.2,14.2,99,75,48,29.67,28.89,36,7,50,0.50
2013-2-1,27.7,23.8,19.7,20.1,12.2,7.4,82,61,46,30.18,29.66,31,6,32,0.00
2013-2-2,28.0,20.6,9.2,15.9,10.9,7.0,92,67,45,30.25,30.03,21,3,22,0.00
2013-2-3,29.8,21.9,14.3,18.5,15.4,12.5,94,77,52,30.07,29.79,9,1,9,0.00
2013-2-4,25.1,20.9,11.5,18.0,13.0,8.9,91,72,53,29.98,29.79,25,4,26,0.00
2013-2-5,29.7,22.8,15.8,23.4,13.8,9.1,88,69,49,30.04,29.90,9,1,9,0.00
2013-2-6,34.9,27.2,19.4,26.6,17.2,3.6,93,68,37,30.40,29.91,26,5,27,0.00
2013-2-7,26.6,20.1,14.2,11.6,6.8,4.4,78,57,40,30.56,30.39,13,3,13,0.00
2013-2-8,29.4,25.1,19.2,25.8,19.9,9.3,95,81,58,30.40,29.83,20,3,20,0.00
2013-2-9,26.7,19.9,8.7,22.6,12.1,1.0,95,73,45,30.39,29.86,25,8,27,0.00
2013-2-10,29.8,11.6,-6.4,9.5,2.8,-9.8,88,70,37,30.54,30.29,9,1,9,0.00
2013-2-11,40.4,33.3,12.8,37.4,29.2,8.3,96,85,60,30.29,29.67,25,6,26,0.03
2013-2-12,39.2,36.6,32.6,33.3,28.3,23.9,96,72,61,29.96,29.70,25,4,25,0.00
2013-2-13,42.7,34.4,30.6,27.7,23.8,21.0,83,66,46,29.92,29.74,11,2,11,0.00
2013-2-14,42.0,31.0,18.6,27.3,23.0,16.5,94,73,53,29.97,29.74,15,1,15,0.00
2013-2-15,50.5,39.4,29.4,31.5,27.6,24.3,93,64,40,30.03,29.90,16,4,16,0.00
2013-2-16,32.4,29.2,24.3,29.6,18.7,8.7,96,66,48,30.03,29.86,21,5,21,0.00
2013-2-17,24.2,19.6,13.5,11.1,4.9,1.0,63,53,39,29.97,29.70,40,11,42,0.00
2013-2-18,28.4,18.1,9.7,11.1,4.1,-0.3,79,55,36,30.24,29.97,39,8,41,0.00
2013-2-19,42.2,30.1,16.0,34.0,23.1,10.7,96,76,51,30.18,29.64,24,4,25,0.04
2013-2-20,33.1,28.4,25.0,27.6,15.4,8.5,80,59,42,29.93,29.68,29,8,29,0.00
2013-2-21,25.6,21.6,18.8,15.8,12.0,8.5,77,66,61,30.40,29.91,30,8,31,0.00
2013-2-22,36.7,28.5,19.7,26.1,19.9,15.1,83,70,56,30.45,30.25,15,3,16,0.00
2013-2-23,36.8,34.6,32.0,35.1,31.4,25.9,96,88,72,30.25,29.88,19,4,19,0.00
2013-2-24,40.3,34.6,32.2,35.7,30.4,25.3,97,85,64,30.00,29.79,21,4,22,0.05
2013-2-25,40.9,34.5,23.1,30.1,27.3,21.3,95,76,58,30.26,30.00,16,2,17,0.00
2013-2-26,45.7,36.0,24.1,31.4,27.5,22.8,96,73,49,30.33,30.05,19,2,19,0.00
2013-2-27,43.7,36.4,31.9,39.1,33.9,26.2,97,91,66,30.06,29.56,19,2,19,0.69
2013-2-28,43.2,37.6,34.0,38.0,35.0,32.8,98,91,76,29.62,29.57,12,2,12,0.19
2013-3-1,42.1,36.1,32.4,33.4,31.0,25.7,93,82,67,29.79,29.61,23,5,24,0.02
2013-3-2,35.3,30.7,26.2,25.7,23.5,19.9,80,74,65,29.79,29.73,21,6,22,0.00
2013-3-3,31.9,26.3,22.5,22.7,19.1,15.4,86,74,64,29.79,29.71,28,7,29,0.00
2013-3-4,31.4,28.7,25.6,24.9,22.0,19.8,88,76,67,29.93,29.77,33,9,33,0.00
2013-3-5,41.1,33.2,29.0,27.9,25.2,22.4,86,73,58,30.09,29.93,21,6,22,0.00
2013-3-6,42.7,35.6,28.5,33.0,27.9,24.8,87,74,60,30.13,30.05,22,6,22,0.00
2013-3-7,37.7,34.2,29.9,31.2,27.3,23.1,97,77,58,30.17,30.10,19,7,19,0.00
2013-3-8,41.8,32.8,29.0,33.7,29.2,25.3,98,87,66,30.31,30.11,18,6,18,0.07
2013-3-9,50.9,35.7,25.4,27.6,24.6,21.4,91,67,36,30.36,30.28,15,4,15,0.00
2013-3-10,53.6,38.3,18.2,33.9,26.0,16.8,95,66,36,30.37,30.20,15,4,21,0.00
2013-3-11,49.2,43.4,36.3,42.6,36.8,31.8,86,77,65,30.26,29.99,24,7,25,0.00
2013-3-12,53.0,48.1,39.0,51.9,45.2,33.3,97,90,80,30.01,29.68,24,6,25,0.86
2013-3-13,45.5,38.0,32.5,33.4,28.2,22.9,90,69,42,29.89,29.79,17,4,18,0.00
2013-3-14,33.2,27.5,23.7,25.5,15.0,7.0,86,59,49,29.93,29.85,29,8,30,0.00
2013-3-15,38.7,30.2,19.8,31.0,19.8,10.7,93,65,48,29.97,29.68,23,4,24,0.00
2013-3-16,36.2,30.0,22.1,25.1,17.3,12.4,77,60,41,29.94,29.78,15,4,16,0.00
2013-3-17,34.9,27.6,19.8,17.2,11.1,6.7,72,51,33,30.35,29.94,23,6,28,0.00
2013-3-18,37.9,26.0,11.8,26.5,12.5,4.2,94,62,28,30.47,30.09,14,2,14,0.00
2013-3-19,34.7,30.6,26.3,33.1,29.2,25.0,97,94,84,30.10,29.71,18,2,25,0.12
2013-3-20,37.6,27.2,14.2,27.5,20.6,12.5,95,78,47,29.84,29.78,23,3,23,0.00
2013-3-21,36.1,26.2,11.7,22.0,13.7,9.0,93,63,35,29.84,29.67,17,3,18,0.01
2013-3-22,37.1,27.7,14.8,26.9,20.3,11.5,89,74,58,29.85,29.71,20,3,21,0.02
2013-3-23,40.1,34.5,29.7,26.6,23.6,20.0,86,65,46,29.92,29.80,29,8,30,0.00
2013-3-24,43.3,36.4,31.2,25.6,23.6,22.2,71,60,46,29.92,29.76,11,4,15,0.00
2013-3-25,44.6,36.8,28.4,29.5,26.4,23.2,81,67,51,29.79,29.52,16,4,17,0.00
2013-3-26,47.8,38.9,27.2,30.5,26.0,20.1,82,62,36,29.86,29.62,24,3,24,0.00
2013-3-27,51.4,39.2,24.3,31.8,27.1,20.8,88,63,38,29.96,29.84,25,5,25,0.00
2013-3-28,48.3,41.9,37.1,35.7,32.9,30.3,85,71,58,30.11,29.95,18,6,19,0.00
2013-3-29,49.4,43.4,37.3,34.4,31.7,28.7,75,63,48,30.14,30.06,21,6,21,0.00
2013-3-30,54.1,42.5,25.1,33.2,26.0,20.1,94,57,28,30.15,30.06,21,4,21,0.00
2013-3-31,56.1,40.8,23.4,40.5,29.0,20.6,95,67,34,30.13,29.72,26,4,26,0.10
2013-4-1,52.4,39.9,31.0,46.8,33.0,16.8,98,78,41,29.90,29.58,30,6,31,0.04
2013-4-2,36.1,31.2,26.3,23.9,19.3,12.2,90,62,41,30.04,29.89,30,6,32,0.00
2013-4-3,39.4,33.1,26.8,23.4,17.8,13.7,85,55,36,30.30,30.03,31,8,32,0.00
2013-4-4,55.2,41.4,27.1,26.2,21.8,17.7,76,48,27,30.37,29.98,18,5,19,0.00
2013-4-5,53.2,44.0,35.0,30.9,25.1,19.2,70,49,29,30.00,29.79,29,6,30,0.00
2013-4-6,47.4,36.0,27.0,27.6,13.3,6.1,70,42,22,30.31,30.00,21,5,25,0.00
2013-4-7,59.9,45.4,26.4,41.3,28.2,14.3,79,53,29,30.26,29.88,35,8,42,0.00
2013-4-8,62.1,50.2,39.9,40.6,36.5,31.8,89,61,34,30.14,29.93,19,4,20,0.00
2013-4-9,61.9,56.4,50.9,49.4,44.9,38.1,78,66,54,30.04,29.84,24,6,24,0.01
2013-4-10,57.2,50.9,45.8,51.3,47.9,43.7,97,90,76,30.00,29.83,16,3,16,0.50
2013-4-11,45.8,40.0,32.2,44.7,31.6,22.0,96,74,45,30.16,29.90,22,7,23,0.10
2013-4-12,40.4,35.8,31.8,36.8,33.7,29.6,97,92,85,30.15,29.79,18,2,21,0.52
2013-4-13,51.0,43.0,37.0,42.5,38.4,36.1,98,85,66,29.95,29.83,20,2,21,0.01
2013-4-14,46.7,41.4,29.2,38.0,31.4,26.1,90,69,48,30.25,29.94,25,4,26,0.00
2013-4-15,61.2,44.3,25.7,37.8,31.4,24.4,96,65,38,30.39,30.23,21,3,21,0.00
2013-4-16,60.7,53.5,45.7,54.5,44.3,31.6,91,71,55,30.32,30.02,27,8,28,0.13
2013-4-17,63.9,53.2,43.7,44.5,36.1,30.6,75,54,29,30.33,30.14,18,5,19,0.00
2013-4-18,64.9,50.6,32.2,48.5,37.6,30.3,94,64,36,30.35,30.02,34,7,34,0.00
2013-4-19,72.3,61.5,43.6,62.9,56.5,41.8,94,84,71,30.02,29.52,26,9,27,0.73
2013-4-20,53.6,44.8,35.2,43.3,34.6,23.6,97,71,38,30.34,29.74,24,5,25,0.19
2013-4-21,50.7,39.0,30.2,27.0,21.6,17.3,83,52,28,30.66,30.34,18,5,18,0.00
2013-4-22,60.0,44.5,27.5,31.4,25.8,18.3,91,53,24,30.72,30.49,22,4,22,0.00
2013-4-23,54.7,43.2,29.3,40.6,33.7,25.5,91,69,57,30.54,30.14,12,2,12,0.00
2013-4-24,73.9,53.4,29.7,52.1,42.6,28.7,97,70,42,30.15,29.69,25,4,26,0.00
2013-4-25,60.9,48.2,35.7,53.4,33.2,24.3,85,59,30,30.27,29.75,27,6,28,0.05
2013-4-26,57.9,45.3,29.8,38.9,32.1,27.8,95,64,36,30.45,30.27,19,4,19,0.00
2013-4-27,65.8,48.3,28.8,39.1,32.1,25.8,95,60,25,30.46,30.27,13,2,13,0.00
2013-4-28,74.6,56.3,34.0,42.6,37.0,32.4,95,55,24,30.32,30.10,20,3,21,0.00
2013-4-29,60.1,55.7,51.4,49.4,43.2,31.6,92,64,40,30.23,30.17,19,4,21,0.00
2013-4-30,73.7,59.9,47.3,49.5,43.1,32.1,93,59,28,30.31,30.22,13,2,14,0.01
2013-5-1,78.5,61.3,38.7,42.1,34.8,29.1,84,42,17,30.45,30.30,13,3,13,0.00
2013-5-2,83.5,64.4,41.6,48.4,42.0,35.6,92,50,20,30.46,30.25,26,3,26,0.00
2013-5-3,73.5,61.2,47.5,42.5,36.5,30.5,75,42,22,30.48,30.30,14,3,15,0.00
2013-5-4,79.0,60.9,39.7,48.2,42.9,35.2,96,57,26,30.36,30.15,12,2,13,0.00
2013-5-5,76.8,60.2,40.4,45.9,38.9,29.6,96,52,19,30.30,30.13,16,3,16,0.00
2013-5-6,75.8,59.2,38.8,51.9,41.8,24.9,97,59,20,30.26,30.07,14,3,14,0.00
2013-5-7,81.7,65.9,45.4,57.0,51.6,44.3,97,64,33,30.17,30.02,13,2,13,0.00
2013-5-8,72.2,63.2,53.1,63.6,58.2,52.0,96,84,63,30.14,29.97,19,1,19,0.25
2013-5-9,72.4,60.3,48.8,58.8,55.2,48.3,99,84,56,30.00,29.86,11,1,11,0.00
2013-5-10,78.0,64.5,49.1,58.9,54.6,48.3,99,74,45,29.99,29.82,13,2,13,0.01
2013-5-11,68.1,63.5,57.0,65.8,59.2,50.6,96,86,70,29.83,29.65,16,4,17,0.13
2013-5-12,60.7,53.4,40.6,50.7,41.4,26.3,91,67,29,29.88,29.67,25,4,29,0.00
2013-5-13,50.8,44.1,32.2,36.4,30.9,26.1,92,62,43,30.11,29.88,15,3,15,0.00
2013-5-14,58.2,44.9,30.4,37.7,31.9,27.4,97,66,33,30.14,30.02,18,2,18,0.00
2013-5-15,67.0,49.1,29.5,54.5,42.0,28.6,97,79,54,30.07,29.60,24,3,24,0.10
2013-5-16,80.7,64.9,42.8,52.3,43.0,36.5,97,53,24,29.85,29.68,28,4,28,0.00
2013-5-17,70.5,59.4,49.2,47.2,41.6,38.7,72,53,33,30.16,29.85,16,4,16,0.00
2013-5-18,73.3,59.5,39.2,51.0,46.3,38.4,98,66,32,30.32,30.21,14,3,15,0.00
2013-5-19,59.5,55.2,45.6,56.8,52.9,44.8,98,92,84,30.31,30.15,15,3,16,0.07
2013-5-20,83.3,67.0,56.8,67.3,60.8,54.9,97,82,58,30.16,29.91,11,2,12,0.00
2013-5-21,90.2,70.6,56.7,73.0,65.3,56.1,99,85,53,29.95,29.77,18,2,19,0.43
2013-5-22,77.2,69.8,62.7,72.6,67.0,62.1,98,91,76,29.88,29.77,17,3,17,0.00
2013-5-23,74.8,69.4,65.7,69.2,66.2,61.9,97,89,80,29.82,29.71,16,3,16,0.00
2013-5-24,65.8,52.1,43.0,65.0,50.4,41.5,99,94,85,30.01,29.65,20,5,20,0.00
2013-5-25,46.4,44.6,43.0,44.6,42.8,40.6,96,94,87,30.00,29.92,23,7,23,0.00
2013-5-26,59.5,49.8,40.9,48.5,42.7,40.1,97,77,58,30.14,29.88,29,6,30,0.01
2013-5-27,71.2,54.8,34.7,47.5,39.0,33.1,98,63,29,30.22,30.11,22,3,22,0.01
2013-5-28,71.6,56.2,38.0,56.0,46.4,37.1,98,73,38,30.24,30.12,16,2,16,0.00
2013-5-29,81.0,64.7,57.2,72.5,61.9,55.8,98,91,73,30.13,29.91,26,3,27,1.03
2013-5-30,90.0,73.8,59.1,74.5,66.8,58.8,99,81,52,30.11,30.02,14,2,14,0.00
2013-5-31,93.7,77.7,62.4,74.9,67.8,61.8,99,75,45,30.11,29.91,12,2,12,0.00
2013-6-1,91.8,78.6,67.5,79.2,68.9,63.0,90,73,51,29.97,29.81,15,3,16,0.18
2013-6-2,87.4,75.8,66.7,76.1,70.1,65.7,97,83,62,29.83,29.68,18,3,19,1.06
2013-6-3,69.3,64.4,54.7,66.0,56.0,40.3,99,75,51,29.95,29.80,16,4,18,0.02
2013-6-4,72.0,60.1,47.2,49.2,44.5,40.8,85,58,39,30.13,29.94,22,6,23,0.00
2013-6-5,75.8,62.5,46.5,56.1,48.4,41.1,94,63,39,30.22,30.08,11,2,11,0.00
2013-6-6,74.0,61.2,50.5,58.1,54.0,49.7,98,80,46,30.15,30.03,18,2,19,0.44
2013-6-7,58.7,56.9,55.8,57.2,55.8,54.9,98,96,93,30.03,29.78,11,2,12,0.70
2013-6-8,72.7,61.7,53.8,62.3,57.4,53.1,98,86,67,30.06,29.72,17,4,17,0.33
2013-6-9,78.5,64.4,49.6,61.9,55.6,49.0,99,76,42,30.18,30.05,17,2,17,0.00
2013-6-10,65.2,59.4,51.5,63.8,58.1,50.9,99,96,89,30.18,29.87,9,1,9,0.74
2013-6-11,71.0,63.6,58.6,69.5,61.2,55.4,99,92,80,29.87,29.56,19,3,19,1.01
2013-6-12,73.3,63.9,54.3,58.1,54.8,52.3,97,73,50,29.85,29.66,20,6,21,0.00
2013-6-13,57.9,55.5,50.8,57.1,54.8,50.3,99,97,95,29.83,29.66,11,2,11,1.67
2013-6-14,74.5,63.6,53.8,62.9,57.2,52.8,99,81,52,29.87,29.70,15,3,15,0.05
2013-6-15,76.6,65.7,50.1,57.1,51.2,45.3,98,64,36,29.99,29.87,22,3,22,0.00
2013-6-16,74.8,62.8,49.4,64.6,56.9,48.6,98,82,66,29.97,29.69,14,2,15,0.00
2013-6-17,85.1,66.5,55.0,70.5,61.3,53.8,99,85,44,29.91,29.77,35,2,35,0.06
2013-6-18,66.5,60.5,54.1,58.8,55.9,51.8,99,85,67,29.96,29.89,19,3,19,0.01
2013-6-19,74.7,61.3,51.4,56.7,49.3,39.8,96,69,38,30.18,29.96,15,3,15,0.00
2013-6-20,81.1,64.0,45.2,60.9,53.5,44.3,98,72,44,30.28,30.17,10,1,10,0.00
2013-6-21,85.9,70.1,53.7,67.8,58.4,51.1,98,71,37,30.27,30.19,8,1,8,0.00
2013-6-22,85.0,73.4,62.2,68.6,64.5,60.0,98,75,53,30.21,30.06,16,3,16,0.00
2013-6-23,93.0,79.1,68.3,76.2,68.6,62.3,90,71,52,30.12,29.96,16,3,16,0.00
2013-6-24,93.0,75.4,66.0,76.0,69.8,65.7,99,85,49,30.03,29.92,30,2,30,1.02
2013-6-25,90.8,74.1,63.0,76.7,69.9,62.7,100,88,56,29.98,29.74,19,2,24,0.41
2013-6-26,83.0,74.2,66.9,73.2,70.3,66.2,100,88,67,29.81,29.75,15,1,15,0.00
2013-6-27,88.3,74.5,64.0,73.7,69.3,63.6,99,85,54,29.81,29.58,20,1,20,0.05
2013-6-28,83.0,73.4,68.1,72.0,69.0,66.4,99,87,65,29.59,29.37,26,4,27,1.72
2013-6-29,83.8,73.7,66.3,71.8,68.1,66.0,99,84,59,29.67,29.47,16,2,16,0.01
2013-6-30,88.0,73.6,64.1,74.0,68.8,63.5,99,86,60,29.91,29.68,15,2,15,0.01
2013-7-1,76.9,71.6,66.4,73.5,70.4,65.8,99,96,88,30.01,29.91,8,1,9,0.20
2013-7-2,86.5,76.3,67.7,77.4,72.7,67.1,99,89,70,30.11,30.01,18,3,19,0.01
2013-7-3,87.7,79.1,72.5,77.4,73.5,70.8,95,84,66,30.19,30.10,16,3,16,0.00
2013-7-4,91.5,80.9,70.9,77.9,74.2,70.0,99,81,61,30.20,30.06,15,3,15,0.00
2013-7-5,93.3,82.0,70.9,78.7,74.6,70.3,99,79,58,30.16,30.01,16,2,16,0.00
2013-7-6,87.8,79.4,70.3,75.2,71.8,69.4,98,79,57,30.10,30.00,14,2,16,0.00
2013-7-7,88.5,76.1,68.8,78.7,72.5,68.2,99,89,66,30.05,29.90,11,1,12,0.41
2013-7-8,86.0,77.1,70.1,73.6,70.7,68.2,99,82,58,30.04,29.92,13,2,14,0.00
2013-7-9,89.0,77.1,69.3,76.0,71.4,67.7,99,84,56,30.07,29.96,11,2,14,0.41
2013-7-10,84.3,76.5,69.6,77.5,73.2,68.4,98,90,75,29.98,29.76,17,2,17,0.68
2013-7-11,83.0,75.5,69.6,73.8,66.7,59.9,99,76,49,29.97,29.75,17,3,18,0.01
2013-7-12,83.0,73.5,65.2,68.5,64.0,60.3,90,73,55,30.17,29.97,12,3,13,0.00
2013-7-13,81.2,72.4,64.2,73.7,68.1,62.4,96,87,75,30.28,30.17,10,1,10,0.04
2013-7-14,92.4,79.2,68.6,78.5,73.3,68.1,99,84,57,30.33,30.20,5,1,8,0.00
2013-7-15,91.2,81.5,70.7,75.5,71.7,66.5,99,74,53,30.24,30.12,14,3,14,0.00
2013-7-16,92.5,81.1,67.0,77.0,70.5,65.5,96,72,47,30.22,30.13,13,2,13,0.00
2013-7-17,96.8,82.2,67.9,78.9,73.1,67.6,99,77,46,30.21,30.00,8,1,8,0.00
2013-7-18,94.7,83.3,71.5,79.0,74.5,70.9,99,77,51,30.04,29.92,14,2,14,0.00
2013-7-19,97.3,84.9,72.0,80.6,73.8,66.9,98,72,47,29.93,29.70,20,2,20,0.00
2013-7-20,89.3,76.6,64.9,76.1,68.7,62.3,94,77,54,29.85,29.69,17,2,19,0.02
2013-7-21,84.3,72.1,60.8,71.7,65.0,60.2,98,80,54,29.98,29.85,11,1,11,0.00
2013-7-22,87.5,74.5,64.6,73.7,66.1,57.3,97,76,55,30.01,29.81,19,2,20,0.18
2013-7-23,84.6,74.9,69.8,73.0,70.9,69.1,99,88,65,29.82,29.55,13,2,13,1.85
2013-7-24,75.5,69.7,62.1,70.3,61.1,51.4,99,75,56,30.02,29.59,22,5,22,0.01
2013-7-25,74.0,63.7,52.2,59.9,53.5,49.1,91,70,54,30.11,30.02,15,3,15,0.00
2013-7-26,78.4,67.3,60.1,63.5,58.5,54.8,97,75,54,30.08,29.99,14,3,14,0.00
2013-7-27,84.5,70.1,54.1,67.7,62.0,53.5,99,78,49,30.05,29.92,14,2,14,0.00
2013-7-28,73.9,69.1,65.9,70.4,66.5,63.0,97,92,82,29.98,29.91,11,2,12,0.57
2013-7-29,84.5,71.8,60.7,67.2,62.6,57.6,99,75,47,30.11,29.94,10,2,11,0.00
2013-7-30,79.3,66.3,53.9,63.2,58.9,53.3,99,79,48,30.17,30.07,13,2,13,0.00
2013-7-31,82.3,68.6,54.5,66.6,60.5,53.8,99,78,45,30.17,30.01,8,1,8,0.00
2013-8-1,74.3,67.0,60.7,68.2,64.1,59.6,98,91,78,30.02,29.83,19,3,20,0.04
2013-8-2,83.8,71.5,62.2,67.3,61.9,56.4,99,75,40,29.87,29.80,12,2,12,0.00
2013-8-3,80.2,70.1,61.0,64.2,59.2,53.1,96,71,41,29.88,29.80,18,3,18,0.00
2013-8-4,76.3,65.9,55.3,62.6,56.9,54.1,98,74,51,29.96,29.83,22,4,23,0.02
2013-8-5,76.0,65.1,53.9,56.3,51.9,46.6,94,65,38,30.06,29.96,18,4,18,0.00
2013-8-6,81.8,65.5,47.5,62.6,54.5,46.8,99,72,38,30.13,30.05,14,1,14,0.00
2013-8-7,76.7,69.3,60.1,66.7,62.8,58.2,95,80,67,30.13,30.02,15,3,16,0.00
2013-8-8,84.3,75.5,68.0,74.0,70.2,65.6,95,84,68,30.02,29.94,19,4,20,0.00
2013-8-9,80.3,74.0,71.7,74.4,71.9,67.2,98,93,81,29.95,29.77,14,2,14,2.78
2013-8-10,77.7,69.7,55.9,66.9,57.7,47.6,99,68,41,30.07,29.85,23,4,23,0.00
2013-8-11,80.2,64.6,50.0,63.5,56.1,49.1,98,77,47,30.13,30.00,9,1,9,0.00
2013-8-12,82.0,68.7,55.4,66.3,61.2,54.8,99,79,51,30.04,29.90,9,1,9,0.00
2013-8-13,77.5,67.7,63.3,70.9,65.4,58.1,99,93,77,29.90,29.64,19,2,19,1.29
2013-8-14,70.4,62.0,51.2,58.0,54.5,50.3,98,77,58,30.02,29.77,22,4,24,0.00
2013-8-15,74.2,61.6,49.9,59.7,53.7,49.1,98,78,45,30.13,30.01,13,2,14,0.00
2013-8-16,80.6,63.6,50.5,64.6,57.3,49.9,99,83,49,30.20,30.12,13,1,13,0.01
2013-8-17,82.5,65.7,50.6,66.7,58.3,50.3,99,80,45,30.31,30.20,8,1,8,0.00
2013-8-18,74.7,64.5,55.3,67.3,61.3,54.9,99,90,73,30.28,30.10,5,0,5,0.00
2013-8-19,80.8,68.3,59.9,68.1,63.0,58.5,99,85,49,30.11,29.99,9,1,9,0.01
2013-8-20,83.8,68.9,56.8,70.3,62.8,56.5,99,84,50,30.13,30.03,11,1,11,0.01
2013-8-21,86.7,70.8,58.5,72.8,65.5,58.2,99,85,57,30.18,30.02,8,1,8,0.00
2013-8-22,87.0,74.2,63.0,75.3,68.3,62.7,99,83,58,30.04,29.82,11,2,12,0.01
2013-8-23,76.3,69.7,60.4,67.7,59.4,49.3,91,71,40,30.17,29.89,15,4,15,0.00
2013-8-24,81.5,63.0,48.3,63.4,53.7,47.8,98,76,37,30.34,30.17,11,1,11,0.00
2013-8-25,82.5,64.4,47.9,64.6,57.2,47.3,99,80,47,30.40,30.16,12,1,12,0.00
2013-8-26,75.5,68.0,62.6,69.9,65.1,60.2,99,91,78,30.17,29.88,10,2,10,0.56
2013-8-27,84.0,72.7,65.9,73.6,69.3,65.3,99,90,66,29.92,29.84,9,2,9,0.14
2013-8-28,90.0,73.2,64.3,75.1,68.1,64.0,100,86,49,29.92,29.81,16,1,16,0.01
2013-8-29,83.0,71.7,62.1,71.1,66.8,61.8,100,86,62,30.04,29.92,7,1,7,0.00
2013-8-30,86.3,73.2,64.5,74.5,68.6,63.4,97,86,65,30.00,29.80,9,1,9,0.00
2013-8-31,84.5,73.0,68.9,77.0,70.9,67.8,99,94,76,29.81,29.73,25,2,25,0.49
2013-9-1,84.1,73.6,68.3,76.1,70.9,68.0,100,92,71,29.85,29.78,12,1,12,0.33
2013-9-2,81.2,73.0,65.6,75.7,70.7,65.0,100,93,76,29.80,29.65,7,2,12,0.48
2013-9-3,75.2,66.8,58.6,66.5,62.5,57.4,100,87,54,29.87,29.72,14,1,14,0.00
2013-9-4,79.3,67.0,56.1,63.4,58.4,53.0,98,77,42,29.97,29.87,14,2,14,0.00
2013-9-5,70.0,63.0,53.1,61.2,51.4,40.8,98,69,37,30.19,29.88,21,4,21,0.00
2013-9-6,70.5,54.8,41.1,54.0,45.0,38.1,98,74,36,30.29,30.12,10,1,10,0.00
2013-9-7,74.8,59.6,46.4,63.1,54.6,45.8,99,86,48,30.13,29.87,10,1,11,0.00
2013-9-8,71.3,63.3,47.8,63.6,53.8,41.3,97,74,37,30.14,29.80,21,3,21,0.01
2013-9-9,70.5,56.2,40.4,56.3,48.8,39.8,98,78,50,30.25,30.09,13,2,13,0.00
2013-9-10,80.8,69.4,61.1,74.8,66.3,55.9,98,90,80,30.10,29.98,13,3,15,0.15
2013-9-11,94.0,78.7,68.6,82.6,74.1,66.7,98,87,66,30.07,29.92,24,3,24,0.14
2013-9-12,81.8,70.8,66.9,75.6,69.2,66.6,99,95,79,29.94,29.67,16,2,16,0.21
2013-9-13,71.3,62.7,54.2,66.6,59.9,48.6,99,91,73,29.88,29.64,16,3,17,0.41
2013-9-14,63.3,55.9,49.0,52.9,48.3,44.8,86,76,63,30.12,29.88,16,4,16,0.00
2013-9-15,68.6,54.5,40.6,57.2,49.7,40.1,99,85,61,30.21,30.06,10,1,10,0.00
2013-9-16,64.8,55.6,43.4,57.1,52.2,41.4,98,89,68,30.33,30.03,18,3,18,0.04
2013-9-17,64.8,49.2,38.4,49.5,42.5,37.3,98,80,47,30.49,30.33,13,2,13,0.01
2013-9-18,72.0,52.7,39.4,55.2,47.3,38.9,99,85,49,30.36,30.15,8,1,8,0.01
2013-9-19,78.1,56.7,41.9,59.8,50.3,41.6,99,83,44,30.19,30.05,7,1,8,0.00
2013-9-20,80.2,59.9,44.8,61.4,53.5,44.1,99,83,48,30.10,29.94,13,1,13,0.01
2013-9-21,73.2,65.9,55.8,65.5,60.8,54.5,97,84,66,29.98,29.60,26,5,26,0.42
2013-9-22,63.1,57.9,49.4,60.6,50.7,43.8,99,78,55,29.94,29.62,19,4,22,0.21
2013-9-23,60.7,51.1,41.3,45.2,42.3,39.4,94,73,55,30.10,29.93,18,5,19,0.00
2013-9-24,66.5,52.5,34.9,47.6,42.7,33.8,97,72,46,30.09,29.88,20,4,20,0.00
2013-9-25,69.7,53.7,38.2,55.4,47.6,37.7,98,82,52,29.99,29.89,10,2,12,0.00
2013-9-26,65.0,56.0,48.1,52.3,49.4,46.7,96,80,57,30.16,29.99,15,3,15,0.00
2013-9-27,61.1,53.0,40.3,54.0,49.3,39.5,98,88,73,30.30,30.15,10,2,10,0.00
2013-9-28,75.3,55.4,43.5,58.9,50.7,42.9,99,86,51,30.38,30.24,9,1,9,0.00
2013-9-29,75.1,56.0,40.7,58.4,49.8,40.4,99,83,43,30.25,30.06,6,1,8,0.01
2013-9-30,76.2,56.2,44.3,57.8,50.8,43.7,99,85,48,30.11,29.97,7,1,7,0.00
2013-10-1,76.7,56.8,42.4,63.9,52.4,42.0,99,87,56,30.04,29.90,8,1,13,0.01
2013-10-2,76.5,61.6,48.5,65.5,56.8,47.9,99,86,61,30.03,29.90,13,2,14,0.00
2013-10-3,74.8,57.7,41.5,60.0,51.6,40.9,99,83,49,30.14,30.03,9,1,10,0.01
2013-10-4,63.2,58.0,52.4,60.5,56.4,51.7,98,95,89,30.09,30.03,9,1,9,0.45
2013-10-5,65.2,59.5,56.9,58.0,56.1,52.5,97,89,75,30.12,30.06,10,2,10,0.01
2013-10-6,63.1,57.3,52.2,60.1,55.4,51.4,98,94,85,30.12,30.03,13,2,14,0.06
2013-10-7,75.3,62.9,51.6,69.0,60.7,50.6,99,93,78,30.03,29.64,26,4,31,1.01
2013-10-8,64.5,53.1,41.0,50.5,44.9,40.2,97,77,47,30.38,29.96,18,2,18,0.00
2013-10-9,65.6,47.2,34.8,50.5,41.5,34.3,99,84,45,30.50,30.35,11,1,11,0.00
2013-10-10,58.3,48.0,36.2,50.6,44.8,35.7,99,90,67,30.36,30.18,8,1,8,0.01
2013-10-11,69.4,55.3,44.9,52.4,48.1,42.6,99,80,41,30.18,30.09,12,1,12,0.00
2013-10-12,73.0,57.7,38.4,56.0,50.0,37.9,99,77,54,30.35,30.15,21,3,21,0.00
2013-10-13,70.4,59.4,49.8,52.6,50.5,47.3,92,73,51,30.43,30.31,10,2,10,0.00
2013-10-14,68.0,55.4,41.7,57.3,50.5,40.9,99,85,61,30.36,30.23,10,1,10,0.00
2013-10-15,71.7,60.5,53.6,60.0,55.9,49.8,97,85,66,30.26,30.11,12,1,12,0.00
2013-10-16,62.9,57.1,47.4,56.4,51.2,44.3,93,81,67,30.12,29.86,15,3,16,0.00
2013-10-17,71.0,61.6,55.5,57.4,54.5,51.0,97,79,51,29.90,29.61,12,2,12,0.03
2013-10-18,65.7,55.9,39.7,61.5,47.7,38.3,97,77,38,29.95,29.58,19,3,19,0.08
2013-10-19,65.3,51.1,36.4,49.0,42.5,35.7,98,75,43,29.97,29.70,19,3,20,0.00
2013-10-20,61.2,51.5,40.7,50.2,39.0,33.6,91,65,38,30.04,29.70,21,4,21,0.00
2013-10-21,67.9,52.8,37.5,45.2,41.3,36.3,97,68,39,30.11,29.91,18,3,19,0.00
2013-10-22,54.8,49.5,34.3,50.4,42.7,33.0,95,78,59,29.91,29.77,17,3,17,0.00
2013-10-23,52.3,41.3,31.2,39.9,35.4,30.3,98,81,53,29.84,29.63,15,1,16,0.00
2013-10-24,53.1,41.9,27.8,37.3,31.4,26.8,97,70,39,29.95,29.74,24,3,24,0.00
2013-10-25,50.2,40.9,31.7,38.1,33.9,29.8,95,78,51,30.18,29.95,17,3,19,0.01
2013-10-26,52.8,42.1,29.2,36.4,32.2,27.9,97,72,43,30.18,29.84,21,4,21,0.00
2013-10-27,51.1,44.1,29.1,37.5,33.9,27.8,96,69,49,30.10,29.81,20,3,21,0.00
2013-10-28,56.2,40.9,28.4,40.3,31.6,25.8,97,73,39,30.39,30.09,21,3,23,0.01
2013-10-29,46.2,35.6,29.6,28.9,25.4,23.4,87,68,43,30.49,30.35,14,2,14,0.00
2013-10-30,52.6,39.0,30.8,41.8,34.6,27.1,96,85,65,30.36,30.20,6,1,6,0.01
2013-10-31,59.6,46.5,29.2,58.3,45.6,28.4,99,97,91,30.24,29.66,22,4,23,0.17
2013-11-1,71.8,63.0,51.4,63.1,54.1,42.1,96,75,46,29.70,29.39,31,7,32,0.09
2013-11-2,61.4,47.9,36.1,50.6,42.8,35.3,98,83,54,29.85,29.61,23,2,23,0.01
2013-11-3,42.3,37.4,27.7,36.9,26.5,17.3,81,65,46,30.50,29.85,22,7,22,0.00
2013-11-4,41.4,29.0,18.2,22.9,19.3,16.0,95,70,38,30.70,30.50,18,2,18,0.00
2013-11-5,53.7,39.2,22.1,39.6,31.3,20.6,95,75,54,30.69,30.46,19,2,19,0.00
2013-11-6,59.1,51.7,42.3,48.7,44.2,39.5,90,76,64,30.46,29.94,26,6,27,0.00
2013-11-7,56.5,49.4,41.4,52.3,43.9,34.7,95,81,70,29.95,29.78,23,6,24,0.30
2013-11-8,45.1,38.9,28.8,35.8,31.6,25.1,92,75,50,30.18,29.89,27,4,33,0.00
2013-11-9,44.9,36.7,23.8,33.0,28.3,21.2,94,72,57,30.25,29.93,13,2,14,0.00
2013-11-10,51.5,45.0,40.1,39.2,34.5,30.1,84,66,52,30.03,29.77,26,5,29,0.01
2013-11-11,49.2,44.5,38.7,35.4,31.4,29.3,70,60,47,30.17,29.92,27,4,29,0.00
2013-11-12,46.3,31.6,26.5,36.3,22.4,17.7,87,69,58,30.29,29.94,30,7,30,0.00
2013-11-13,35.7,27.2,21.3,20.1,16.3,13.1,86,64,45,30.39,30.18,22,4,23,0.00
2013-11-14,50.8,34.3,24.0,25.8,22.2,19.5,85,64,35,30.18,30.08,12,2,12,0.00
2013-11-15,56.8,38.5,25.4,27.8,23.0,19.3,82,56,28,30.21,30.10,10,2,10,0.00
2013-11-16,60.6,45.5,33.7,40.2,32.5,25.3,86,62,39,30.32,30.19,10,2,11,0.00
2013-11-17,60.6,50.7,37.3,57.7,48.9,32.8,98,94,84,30.25,29.68,25,4,26,0.02
2013-11-18,63.7,56.2,42.9,58.5,42.8,29.4,96,64,34,29.77,29.48,27,6,28,0.16
2013-11-19,43.1,36.7,28.3,30.5,24.3,19.4,79,61,51,30.40,29.77,30,8,31,0.00
2013-11-20,37.4,27.6,17.6,19.6,17.3,15.0,92,67,42,30.66,30.40,14,2,14,0.00
2013-11-21,45.7,30.6,13.0,32.8,23.2,11.3,94,76,49,30.66,30.37,13,1,16,0.00
2013-11-22,48.4,40.9,37.1,44.2,38.8,30.9,98,92,75,30.37,29.89,35,1,37,0.09
2013-11-23,46.1,35.0,23.5,38.2,24.8,13.8,91,67,46,30.05,29.87,36,8,38,0.00
2013-11-24,25.1,20.3,15.4,14.1,7.3,2.6,79,58,39,30.34,29.95,40,9,41,0.00
2013-11-25,32.4,24.5,14.0,17.2,11.5,4.2,70,58,50,30.46,30.23,21,4,22,0.00
2013-11-26,34.1,31.4,27.2,31.9,26.5,15.8,97,83,51,30.32,29.93,18,3,19,0.24
2013-11-27,39.5,35.5,32.4,38.6,33.4,25.8,98,92,75,29.93,29.42,28,6,29,1.16
2013-11-28,32.8,24.2,14.3,25.7,15.2,10.4,93,69,50,30.47,29.66,39,7,39,0.00
2013-11-29,32.0,23.9,17.4,18.8,16.2,11.8,94,74,48,30.77,30.47,15,3,16,0.00
2013-11-30,30.9,22.4,8.6,21.1,12.8,6.5,92,68,47,30.81,30.37,15,3,16,0.00
2013-12-1,41.1,32.2,24.0,32.0,27.0,21.1,93,81,68,30.37,30.03,11,1,11,0.00
2013-12-2,39.4,33.6,25.9,33.6,30.4,24.9,96,88,79,30.03,29.91,5,0,5,0.00
2013-12-3,42.9,32.1,23.2,36.6,28.9,21.8,97,89,73,30.02,29.92,11,1,11,0.00
2013-12-4,44.1,28.5,19.7,32.7,25.1,18.3,96,88,62,30.17,30.02,6,0,6,0.00
2013-12-5,53.1,45.0,26.8,51.8,43.3,25.3,97,94,87,30.16,29.89,19,5,23,0.00
2013-12-6,52.6,39.8,31.6,51.1,35.8,30.3,97,86,74,30.20,29.90,22,5,25,0.18
2013-12-7,37.2,32.5,28.1,30.9,25.4,18.7,96,76,60,30.52,30.16,23,5,24,0.04
2013-12-8,30.2,27.5,21.5,22.6,20.3,17.5,90,74,64,30.62,30.45,7,1,7,0.00
2013-12-9,36.1,30.8,25.8,33.7,28.8,22.4,97,93,78,30.45,29.92,15,4,16,0.03
2013-12-10,35.2,28.0,13.0,31.8,24.4,11.0,98,87,67,30.04,29.87,18,2,18,0.00
2013-12-11,32.6,24.8,13.5,22.2,16.2,11.4,94,71,49,30.24,30.04,18,3,19,0.00
2013-12-12,24.1,18.2,11.5,15.7,7.2,-4.0,83,63,36,30.36,30.06,16,3,16,0.00
2013-12-13,29.7,22.6,13.3,22.6,12.8,7.7,90,66,58,30.43,30.01,18,5,19,0.00
2013-12-14,16.6,10.5,8.1,8.9,4.8,-1.1,90,78,65,30.61,30.06,14,4,14,0.00
2013-12-15,31.4,22.3,11.0,27.2,19.7,8.6,95,90,76,30.06,29.58,18,3,20,0.00
2013-12-16,25.4,18.2,0.0,23.4,11.4,-3.4,94,75,57,30.25,29.77,18,3,18,0.00
2013-12-17,12.0,3.0,-9.9,9.3,0.2,-13.4,90,88,83,30.27,30.02,5,1,5,0.00
2013-12-18,25.6,16.2,6.0,20.4,13.2,3.7,93,88,78,30.10,30.00,8,1,8,0.00
2013-12-19,39.4,28.3,14.0,26.0,22.6,12.1,95,80,58,30.12,29.98,14,2,14,0.08
2013-12-20,44.1,37.0,26.5,34.8,30.3,23.3,89,77,66,30.10,29.90,10,2,10,0.04
2013-12-21,50.5,45.2,40.5,44.8,38.3,32.7,98,78,63,29.93,29.82,16,3,16,0.09
2013-12-22,59.7,41.1,32.6,59.3,39.9,31.8,99,96,86,29.95,29.61,21,2,21,0.01
2013-12-23,47.5,41.3,34.0,44.4,38.2,26.8,98,89,72,30.20,29.93,18,4,18,0.24
2013-12-24,33.9,26.9,17.6,26.9,18.7,9.4,82,71,60,30.37,30.14,26,6,27,0.00
2013-12-25,22.8,15.8,10.3,11.1,6.4,3.1,76,66,53,30.58,30.36,19,4,21,0.00
2013-12-26,30.4,26.0,19.5,25.1,19.3,10.2,95,76,57,30.41,30.12,20,4,21,0.00
2013-12-27,34.5,28.9,18.9,25.0,21.6,15.5,91,74,64,30.31,30.22,15,2,16,0.00
2013-12-28,47.5,31.9,22.6,32.3,25.6,19.8,94,79,54,30.23,30.03,18,3,19,0.00
2013-12-29,40.9,33.2,23.1,35.7,30.2,21.5,97,89,69,30.04,29.59,13,2,13,0.80
2013-12-30,34.4,24.3,10.4,33.9,18.8,7.2,98,80,62,30.25,29.66,25,5,27,0.02
2013-12-31,23.6,16.5,8.1,19.3,11.3,4.6,92,81,51,30.25,30.03,24,3,24,0.00
2014-1-1,24.7,18.7,9.7,14.5,10.8,6.5,90,71,56,30.40,30.23,17,3,18,0.00
2014-1-2,17.5,4.1,-2.3,14.7,0.8,-5.7,89,86,84,30.36,29.94,24,6,24,0.00